sensor_id;sensor_type;location;lat;lon;timestamp;pressure;altitude;pressure_sealevel;temperature;humidity
64713;BME280;51140;45.340;5.980;2022-10-26T00:02:08;97662.28;;;23.30;100.00
64713;BME280;51140;45.340;5.980;2022-10-26T00:04:33;97663.13;;;23.31;100.00
64713;BME280;51140;45.340;5.980;2022-10-26T00:06:59;97681.06;;;23.29;100.00
64713;BME280;51140;45.340;5.980;2022-10-26T00:09:24;97682.91;;;23.28;100.00
64713;BME280;51140;45.340;5.980;2022-10-26T00:11:51;97685.56;;;23.28;100.00
64713;BME280;51140;45.340;5.980;2022-10-26T00:14:16;97682.06;;;23.28;100.00
64713;BME280;51140;45.340;5.980;2022-10-26T00:16:42;97680.59;;;23.25;100.00
64713;BME280;51140;45.340;5.980;2022-10-26T00:19:07;97681.41;;;23.26;100.00
64713;BME280;51140;45.340;5.980;2022-10-26T00:21:32;97699.19;;;23.25;100.00
64713;BME280;51140;45.340;5.980;2022-10-26T00:23:58;97693.88;;;23.25;100.00
64713;BME280;51140;45.340;5.980;2022-10-26T00:26:24;97703.84;;;23.23;100.00
64713;BME280;51140;45.340;5.980;2022-10-26T00:28:52;97696.03;;;23.22;100.00
64713;BME280;51140;45.340;5.980;2022-10-26T00:31:18;97717.31;;;23.22;100.00
64713;BME280;51140;45.340;5.980;2022-10-26T00:33:44;97685.72;;;23.19;100.00
64713;BME280;51140;45.340;5.980;2022-10-26T00:36:10;97707.81;;;23.19;100.00
64713;BME280;51140;45.340;5.980;2022-10-26T00:38:38;97704.31;;;23.19;100.00
64713;BME280;51140;45.340;5.980;2022-10-26T00:41:13;97708.81;;;23.18;100.00
64713;BME280;51140;45.340;5.980;2022-10-26T00:43:38;97693.03;;;23.17;100.00
64713;BME280;51140;45.340;5.980;2022-10-26T00:46:07;97706.50;;;23.15;100.00
64713;BME280;51140;45.340;5.980;2022-10-26T00:48:35;97689.56;;;23.16;100.00
64713;BME280;51140;45.340;5.980;2022-10-26T00:51:07;97679.09;;;23.14;100.00
64713;BME280;51140;45.340;5.980;2022-10-26T00:53:34;97674.94;;;23.12;100.00
64713;BME280;51140;45.340;5.980;2022-10-26T00:56:00;97700.69;;;23.11;100.00
64713;BME280;51140;45.340;5.980;2022-10-26T00:58:26;97701.69;;;23.10;100.00
64713;BME280;51140;45.340;5.980;2022-10-26T01:00:52;97716.13;;;23.08;100.00
64713;BME280;51140;45.340;5.980;2022-10-26T01:03:17;97710.00;;;23.07;100.00
64713;BME280;51140;45.340;5.980;2022-10-26T01:05:45;97715.47;;;23.06;100.00
64713;BME280;51140;45.340;5.980;2022-10-26T01:08:13;97724.44;;;23.05;100.00
64713;BME280;51140;45.340;5.980;2022-10-26T01:10:40;97729.09;;;23.03;100.00
64713;BME280;51140;45.340;5.980;2022-10-26T01:13:06;97753.00;;;23.03;100.00
64713;BME280;51140;45.340;5.980;2022-10-26T01:24:21;97772.09;;;22.98;100.00
64713;BME280;51140;45.340;5.980;2022-10-26T01:29:30;97768.63;;;22.98;100.00
64713;BME280;51140;45.340;5.980;2022-10-26T01:32:03;97767.97;;;22.96;100.00
64713;BME280;51140;45.340;5.980;2022-10-26T01:34:46;97778.75;;;22.94;100.00
64713;BME280;51140;45.340;5.980;2022-10-26T01:37:21;97796.69;;;22.92;100.00
64713;BME280;51140;45.340;5.980;2022-10-26T01:39:54;97787.88;;;22.92;100.00
64713;BME280;51140;45.340;5.980;2022-10-26T01:42:22;97795.84;;;22.92;100.00
64713;BME280;51140;45.340;5.980;2022-10-26T01:45:00;97812.78;;;22.91;100.00
64713;BME280;51140;45.340;5.980;2022-10-26T01:47:29;97807.81;;;22.88;100.00
64713;BME280;51140;45.340;5.980;2022-10-26T01:49:58;97806.97;;;22.87;100.00
64713;BME280;51140;45.340;5.980;2022-10-26T01:52:24;97812.44;;;22.86;100.00
64713;BME280;51140;45.340;5.980;2022-10-26T01:54:50;97812.44;;;22.86;100.00
64713;BME280;51140;45.340;5.980;2022-10-26T01:57:18;97809.97;;;22.84;100.00
64713;BME280;51140;45.340;5.980;2022-10-26T02:00:05;97823.25;;;22.84;100.00
64713;BME280;51140;45.340;5.980;2022-10-26T02:08:18;97831.50;;;22.81;100.00
64713;BME280;51140;45.340;5.980;2022-10-26T02:11:12;97846.75;;;22.79;100.00
64713;BME280;51140;45.340;5.980;2022-10-26T02:13:46;97835.44;;;22.77;100.00
64713;BME280;51140;45.340;5.980;2022-10-26T02:16:57;97833.78;;;22.76;100.00
64713;BME280;51140;45.340;5.980;2022-10-26T02:21:37;97831.47;;;22.73;100.00
64713;BME280;51140;45.340;5.980;2022-10-26T02:24:06;97836.94;;;22.71;100.00
64713;BME280;51140;45.340;5.980;2022-10-26T02:26:35;97841.41;;;22.71;100.00
64713;BME280;51140;45.340;5.980;2022-10-26T02:29:04;97834.28;;;22.71;100.00
64713;BME280;51140;45.340;5.980;2022-10-26T02:31:33;97834.44;;;22.70;100.00
64713;BME280;51140;45.340;5.980;2022-10-26T02:34:01;97862.00;;;22.69;100.00
64713;BME280;51140;45.340;5.980;2022-10-26T02:36:32;97839.91;;;22.68;100.00
64713;BME280;51140;45.340;5.980;2022-10-26T02:39:00;97831.28;;;22.66;100.00
64713;BME280;51140;45.340;5.980;2022-10-26T02:41:28;97871.94;;;22.67;100.00
64713;BME280;51140;45.340;5.980;2022-10-26T02:44:24;97831.75;;;22.54;100.00
64713;BME280;51140;45.340;5.980;2022-10-26T02:46:50;97832.91;;;22.43;100.00
64713;BME280;51140;45.340;5.980;2022-10-26T02:49:16;97834.31;;;22.29;100.00
64713;BME280;51140;45.340;5.980;2022-10-26T02:56:45;97863.81;;;22.18;100.00
64713;BME280;51140;45.340;5.980;2022-10-26T02:59:14;97851.34;;;22.10;100.00
64713;BME280;51140;45.340;5.980;2022-10-26T03:01:41;97857.63;;;22.09;100.00
64713;BME280;51140;45.340;5.980;2022-10-26T03:04:06;97843.19;;;22.04;100.00
64713;BME280;51140;45.340;5.980;2022-10-26T03:06:32;97842.94;;;21.97;100.00
64713;BME280;51140;45.340;5.980;2022-10-26T03:08:58;97839.78;;;21.94;100.00
64713;BME280;51140;45.340;5.980;2022-10-26T03:11:23;97856.00;;;21.90;100.00
64713;BME280;51140;45.340;5.980;2022-10-26T03:13:48;97867.94;;;21.95;100.00
64713;BME280;51140;45.340;5.980;2022-10-26T03:16:14;97866.97;;;21.96;100.00
64713;BME280;51140;45.340;5.980;2022-10-26T03:18:39;97871.41;;;21.87;100.00
64713;BME280;51140;45.340;5.980;2022-10-26T03:21:04;97879.34;;;21.87;100.00
64713;BME280;51140;45.340;5.980;2022-10-26T03:23:30;97879.97;;;21.81;100.00
64713;BME280;51140;45.340;5.980;2022-10-26T03:25:59;97875.00;;;21.78;100.00
64713;BME280;51140;45.340;5.980;2022-10-26T03:28:25;97877.13;;;21.74;100.00
64713;BME280;51140;45.340;5.980;2022-10-26T03:30:50;97885.06;;;21.74;100.00
64713;BME280;51140;45.340;5.980;2022-10-26T03:33:16;97900.66;;;21.77;100.00
64713;BME280;51140;45.340;5.980;2022-10-26T03:35:41;97907.72;;;21.95;100.00
64713;BME280;51140;45.340;5.980;2022-10-26T03:38:07;97932.53;;;22.03;100.00
64713;BME280;51140;45.340;5.980;2022-10-26T03:40:32;97926.09;;;22.06;100.00
64713;BME280;51140;45.340;5.980;2022-10-26T03:42:59;97916.84;;;22.10;100.00
64713;BME280;51140;45.340;5.980;2022-10-26T03:45:25;97913.19;;;22.11;100.00
64713;BME280;51140;45.340;5.980;2022-10-26T03:47:50;97926.28;;;22.12;100.00
64713;BME280;51140;45.340;5.980;2022-10-26T03:50:17;97926.28;;;22.12;100.00
64713;BME280;51140;45.340;5.980;2022-10-26T03:52:43;97934.25;;;22.12;100.00
64713;BME280;51140;45.340;5.980;2022-10-26T03:55:10;97943.03;;;22.13;100.00
64713;BME280;51140;45.340;5.980;2022-10-26T03:57:42;97942.22;;;22.12;100.00
64713;BME280;51140;45.340;5.980;2022-10-26T04:00:10;97952.97;;;22.11;100.00
64713;BME280;51140;45.340;5.980;2022-10-26T04:02:35;97955.63;;;22.11;100.00
64713;BME280;51140;45.340;5.980;2022-10-26T04:05:01;97964.25;;;22.13;100.00
64713;BME280;51140;45.340;5.980;2022-10-26T04:07:26;97950.31;;;22.11;100.00
64713;BME280;51140;45.340;5.980;2022-10-26T04:09:52;97958.28;;;22.11;100.00
64713;BME280;51140;45.340;5.980;2022-10-26T04:12:17;97964.56;;;22.10;100.00
64713;BME280;51140;45.340;5.980;2022-10-26T04:14:42;97959.28;;;22.10;100.00
64713;BME280;51140;45.340;5.980;2022-10-26T04:17:08;97947.00;;;22.09;100.00
64713;BME280;51140;45.340;5.980;2022-10-26T04:19:33;97960.25;;;22.09;100.00
64713;BME280;51140;45.340;5.980;2022-10-26T04:21:58;97964.72;;;22.08;100.00
64713;BME280;51140;45.340;5.980;2022-10-26T04:24:24;97965.56;;;22.09;100.00
64713;BME280;51140;45.340;5.980;2022-10-26T04:26:49;97960.25;;;22.09;100.00
64713;BME280;51140;45.340;5.980;2022-10-26T04:29:14;97957.59;;;22.09;100.00
64713;BME280;51140;45.340;5.980;2022-10-26T04:31:40;97978.84;;;22.09;100.00
64713;BME280;51140;45.340;5.980;2022-10-26T04:34:06;97970.34;;;22.05;100.00
64713;BME280;51140;45.340;5.980;2022-10-26T04:36:31;97990.44;;;22.08;100.00
64713;BME280;51140;45.340;5.980;2022-10-26T04:38:57;97984.44;;;22.06;100.00
64713;BME280;51140;45.340;5.980;2022-10-26T04:41:22;97986.28;;;22.05;100.00
64713;BME280;51140;45.340;5.980;2022-10-26T04:43:47;97987.94;;;22.06;100.00
64713;BME280;51140;45.340;5.980;2022-10-26T04:46:13;97987.09;;;22.06;100.00
64713;BME280;51140;45.340;5.980;2022-10-26T04:48:39;97988.25;;;22.03;100.00
64713;BME280;51140;45.340;5.980;2022-10-26T04:51:04;97996.19;;;22.03;100.00
64713;BME280;51140;45.340;5.980;2022-10-26T04:53:30;98005.81;;;22.04;100.00
64713;BME280;51140;45.340;5.980;2022-10-26T04:55:59;98002.34;;;22.04;100.00
64713;BME280;51140;45.340;5.980;2022-10-26T04:58:28;97998.00;;;22.03;100.00
64713;BME280;51140;45.340;5.980;2022-10-26T05:00:54;97992.56;;;22.04;100.00
64713;BME280;51140;45.340;5.980;2022-10-26T05:03:20;97994.38;;;22.04;100.00
64713;BME280;51140;45.340;5.980;2022-10-26T05:05:45;98015.59;;;22.04;100.00
64713;BME280;51140;45.340;5.980;2022-10-26T05:08:14;98014.91;;;22.02;100.00
64713;BME280;51140;45.340;5.980;2022-10-26T05:10:40;98022.97;;;22.00;100.00
64713;BME280;51140;45.340;5.980;2022-10-26T05:13:05;98022.84;;;22.02;100.00
64713;BME280;51140;45.340;5.980;2022-10-26T05:15:31;98025.63;;;22.00;100.00
64713;BME280;51140;45.340;5.980;2022-10-26T05:17:58;98025.78;;;21.99;100.00
64713;BME280;51140;45.340;5.980;2022-10-26T05:20:25;98018.81;;;21.98;100.00
64713;BME280;51140;45.340;5.980;2022-10-26T05:22:57;98028.44;;;21.99;100.00
64713;BME280;51140;45.340;5.980;2022-10-26T05:25:23;98036.38;;;21.99;100.00
64713;BME280;51140;45.340;5.980;2022-10-26T05:27:49;98026.78;;;21.98;100.00
64713;BME280;51140;45.340;5.980;2022-10-26T05:30:15;98033.06;;;21.97;100.00
64713;BME280;51140;45.340;5.980;2022-10-26T05:32:40;98034.72;;;21.98;100.00
64713;BME280;51140;45.340;5.980;2022-10-26T05:35:06;98036.69;;;21.96;100.00
64713;BME280;51140;45.340;5.980;2022-10-26T05:37:31;98039.50;;;21.94;100.00
64713;BME280;51140;45.340;5.980;2022-10-26T05:39:57;98043.00;;;21.95;100.00
64713;BME280;51140;45.340;5.980;2022-10-26T05:42:22;98043.00;;;21.95;100.00
64713;BME280;51140;45.340;5.980;2022-10-26T05:44:49;98044.81;;;21.94;100.00
64713;BME280;51140;45.340;5.980;2022-10-26T05:47:15;98048.44;;;21.93;100.00
64713;BME280;51140;45.340;5.980;2022-10-26T05:49:40;98046.78;;;21.92;100.00
64713;BME280;51140;45.340;5.980;2022-10-26T05:52:05;98043.16;;;21.93;100.00
64713;BME280;51140;45.340;5.980;2022-10-26T05:54:31;97990.00;;;21.77;100.00
64713;BME280;51140;45.340;5.980;2022-10-26T05:56:56;98035.28;;;21.83;100.00
64713;BME280;51140;45.340;5.980;2022-10-26T05:59:22;98043.97;;;21.94;100.00
64713;BME280;51140;45.340;5.980;2022-10-26T06:01:59;98044.78;;;22.04;100.00
64713;BME280;51140;45.340;5.980;2022-10-26T06:04:34;98031.66;;;22.02;100.00
64713;BME280;51140;45.340;5.980;2022-10-26T06:07:03;98027.25;;;22.11;100.00
64713;BME280;51140;45.340;5.980;2022-10-26T06:09:33;98044.69;;;22.13;100.00
64713;BME280;51140;45.340;5.980;2022-10-26T06:11:59;98039.16;;;22.07;100.00
64713;BME280;51140;45.340;5.980;2022-10-26T06:14:26;98036.06;;;22.11;100.00
64713;BME280;51140;45.340;5.980;2022-10-26T06:30:12;98031.78;;;22.18;100.00
64713;BME280;51140;45.340;5.980;2022-10-26T06:32:39;98035.94;;;22.21;100.00
64713;BME280;51140;45.340;5.980;2022-10-26T06:37:43;98030.09;;;22.00;100.00
64713;BME280;51140;45.340;5.980;2022-10-26T06:40:11;98048.13;;;22.06;100.00
64713;BME280;51140;45.340;5.980;2022-10-26T06:42:37;98068.66;;;22.04;100.00
64713;BME280;51140;45.340;5.980;2022-10-26T06:45:04;98055.50;;;22.02;100.00
64713;BME280;51140;45.340;5.980;2022-10-26T06:47:39;98073.13;;;22.03;100.00
64713;BME280;51140;45.340;5.980;2022-10-26T06:50:39;98074.91;;;22.03;100.00
64713;BME280;51140;45.340;5.980;2022-10-26T06:55:50;98068.22;;;21.99;100.00
64713;BME280;51140;45.340;5.980;2022-10-26T06:58:17;98049.50;;;22.00;100.00
64713;BME280;51140;45.340;5.980;2022-10-26T07:00:45;98081.63;;;21.97;100.00
64713;BME280;51140;45.340;5.980;2022-10-26T07:03:12;98088.88;;;22.05;100.00
64713;BME280;51140;45.340;5.980;2022-10-26T07:05:37;98097.84;;;22.04;100.00
64713;BME280;51140;45.340;5.980;2022-10-26T07:08:03;98093.59;;;22.01;100.00
64713;BME280;51140;45.340;5.980;2022-10-26T07:10:29;98081.09;;;21.94;100.00
64713;BME280;51140;45.340;5.980;2022-10-26T07:12:54;98084.75;;;21.93;100.00
64713;BME280;51140;45.340;5.980;2022-10-26T07:15:20;98093.00;;;21.89;100.00
64713;BME280;51140;45.340;5.980;2022-10-26T07:17:46;98105.44;;;21.89;100.00
64713;BME280;51140;45.340;5.980;2022-10-26T07:20:13;98104.28;;;21.92;100.00
64713;BME280;51140;45.340;5.980;2022-10-26T07:22:39;98105.91;;;21.84;100.00
64713;BME280;51140;45.340;5.980;2022-10-26T07:25:07;98103.25;;;21.84;100.00
64713;BME280;51140;45.340;5.980;2022-10-26T07:27:32;98118.47;;;21.82;100.00
64713;BME280;51140;45.340;5.980;2022-10-26T07:29:58;98116.66;;;21.83;100.00
64713;BME280;51140;45.340;5.980;2022-10-26T07:32:23;98111.88;;;21.86;100.00
64713;BME280;51140;45.340;5.980;2022-10-26T07:34:48;98122.41;;;21.96;100.00
64713;BME280;51140;45.340;5.980;2022-10-26T07:37:14;98115.75;;;21.92;100.00
64713;BME280;51140;45.340;5.980;2022-10-26T07:39:39;98115.97;;;21.81;100.00
64713;BME280;51140;45.340;5.980;2022-10-26T07:42:05;98110.44;;;21.74;100.00
64713;BME280;51140;45.340;5.980;2022-10-26T07:44:30;98115.22;;;21.71;100.00
64713;BME280;51140;45.340;5.980;2022-10-26T07:46:55;98109.22;;;21.69;100.00
64713;BME280;51140;45.340;5.980;2022-10-26T07:49:21;98116.50;;;21.67;100.00
64713;BME280;51140;45.340;5.980;2022-10-26T07:51:46;98118.47;;;21.65;100.00
64713;BME280;51140;45.340;5.980;2022-10-26T07:54:12;98123.06;;;21.63;100.00
64713;BME280;51140;45.340;5.980;2022-10-26T07:56:37;98117.78;;;21.63;100.00
64713;BME280;51140;45.340;5.980;2022-10-26T07:59:03;98110.81;;;21.62;100.00
64713;BME280;51140;45.340;5.980;2022-10-26T08:01:28;98119.03;;;21.58;100.00
64713;BME280;51140;45.340;5.980;2022-10-26T08:03:54;98111.22;;;21.57;100.00
64713;BME280;51140;45.340;5.980;2022-10-26T08:06:20;98120.00;;;21.57;100.00
64713;BME280;51140;45.340;5.980;2022-10-26T08:08:46;98121.84;;;21.57;100.00
64713;BME280;51140;45.340;5.980;2022-10-26T08:11:12;98122.13;;;21.54;100.00
64713;BME280;51140;45.340;5.980;2022-10-26T08:13:37;98113.72;;;21.58;100.00
64713;BME280;51140;45.340;5.980;2022-10-26T08:16:04;98113.31;;;21.63;100.00
64713;BME280;51140;45.340;5.980;2022-10-26T08:18:30;98088.31;;;21.66;100.00
64713;BME280;51140;45.340;5.980;2022-10-26T08:21:04;98100.59;;;21.67;100.00
64713;BME280;51140;45.340;5.980;2022-10-26T08:23:30;98103.09;;;21.68;100.00
64713;BME280;51140;45.340;5.980;2022-10-26T08:26:00;98105.06;;;21.66;100.00
64713;BME280;51140;45.340;5.980;2022-10-26T08:28:26;98117.03;;;21.70;100.00
64713;BME280;51140;45.340;5.980;2022-10-26T08:30:51;98107.72;;;21.66;100.00
64713;BME280;51140;45.340;5.980;2022-10-26T08:33:17;98120.97;;;21.66;100.00
64713;BME280;51140;45.340;5.980;2022-10-26T08:35:42;98115.97;;;21.63;100.00
64713;BME280;51140;45.340;5.980;2022-10-26T08:38:08;98126.84;;;21.60;100.00
64713;BME280;51140;45.340;5.980;2022-10-26T08:40:37;98122.66;;;21.57;100.00
64713;BME280;51140;45.340;5.980;2022-10-26T08:43:17;98132.44;;;21.57;100.00
64713;BME280;51140;45.340;5.980;2022-10-26T08:45:52;98118.66;;;21.53;100.00
64713;BME280;51140;45.340;5.980;2022-10-26T08:48:24;98133.56;;;21.54;100.00
64713;BME280;51140;45.340;5.980;2022-10-26T08:50:54;98142.50;;;21.53;100.00
64713;BME280;51140;45.340;5.980;2022-10-26T08:53:25;98138.34;;;21.51;100.00
64713;BME280;51140;45.340;5.980;2022-10-26T08:58:39;98129.53;;;21.50;100.00
64713;BME280;51140;45.340;5.980;2022-10-26T09:01:07;98132.19;;;21.50;100.00
64713;BME280;51140;45.340;5.980;2022-10-26T09:03:33;98146.44;;;21.49;100.00
64713;BME280;51140;45.340;5.980;2022-10-26T09:11:11;98146.44;;;21.49;100.00
64713;BME280;51140;45.340;5.980;2022-10-26T09:13:56;98130.00;;;21.46;100.00
64713;BME280;51140;45.340;5.980;2022-10-26T09:17:00;98151.19;;;21.46;100.00
64713;BME280;51140;45.340;5.980;2022-10-26T09:22:14;98148.69;;;21.44;100.00
64713;BME280;51140;45.340;5.980;2022-10-26T09:24:48;98147.41;;;21.48;100.00
64713;BME280;51140;45.340;5.980;2022-10-26T09:27:25;98148.63;;;21.54;100.00
64713;BME280;51140;45.340;5.980;2022-10-26T09:29:51;98149.59;;;21.63;100.00
64713;BME280;51140;45.340;5.980;2022-10-26T09:32:19;98148.59;;;21.64;100.00
64713;BME280;51140;45.340;5.980;2022-10-26T09:37:36;98137.72;;;21.57;100.00
64713;BME280;51140;45.340;5.980;2022-10-26T09:40:37;98139.53;;;21.66;100.00
64713;BME280;51140;45.340;5.980;2022-10-26T09:43:13;98145.22;;;21.71;100.00
64713;BME280;51140;45.340;5.980;2022-10-26T09:45:44;98147.16;;;21.69;100.00
64713;BME280;51140;45.340;5.980;2022-10-26T09:48:15;98165.28;;;21.74;100.00
64713;BME280;51140;45.340;5.980;2022-10-26T09:50:47;98160.13;;;21.72;100.00
64713;BME280;51140;45.340;5.980;2022-10-26T09:53:13;98160.81;;;21.74;100.00
64713;BME280;51140;45.340;5.980;2022-10-26T09:55:41;98157.19;;;21.75;100.00
64713;BME280;51140;45.340;5.980;2022-10-26T09:58:16;98152.72;;;21.76;100.00
64713;BME280;51140;45.340;5.980;2022-10-26T10:00:44;98161.94;;;21.72;100.00
64713;BME280;51140;45.340;5.980;2022-10-26T10:03:19;98165.59;;;21.71;100.00
64713;BME280;51140;45.340;5.980;2022-10-26T10:05:45;98179.66;;;21.71;100.00
64713;BME280;51140;45.340;5.980;2022-10-26T10:08:14;98180.66;;;21.70;100.00
64713;BME280;51140;45.340;5.980;2022-10-26T10:11:02;98174.75;;;21.76;100.00
64713;BME280;51140;45.340;5.980;2022-10-26T10:13:40;98207.19;;;21.88;100.00
64713;BME280;51140;45.340;5.980;2022-10-26T10:16:22;98185.97;;;21.88;100.00
64713;BME280;51140;45.340;5.980;2022-10-26T10:18:53;98175.38;;;21.88;100.00
64713;BME280;51140;45.340;5.980;2022-10-26T10:21:19;98177.19;;;21.87;100.00
64713;BME280;51140;45.340;5.980;2022-10-26T10:23:49;98168.25;;;21.88;100.00
64713;BME280;51140;45.340;5.980;2022-10-26T10:26:18;98160.97;;;21.90;100.00
64713;BME280;51140;45.340;5.980;2022-10-26T10:28:56;98160.00;;;21.92;100.00
64713;BME280;51140;45.340;5.980;2022-10-26T10:31:27;98173.25;;;21.92;100.00
64713;BME280;51140;45.340;5.980;2022-10-26T10:33:53;98189.25;;;22.00;100.00
64713;BME280;51140;45.340;5.980;2022-10-26T10:36:19;98178.78;;;21.98;100.00
64713;BME280;51140;45.340;5.980;2022-10-26T10:38:48;98185.38;;;22.04;100.00
64713;BME280;51140;45.340;5.980;2022-10-26T10:41:34;98163.44;;;22.02;100.00
64713;BME280;51140;45.340;5.980;2022-10-26T10:46:26;98190.91;;;22.01;100.00
64713;BME280;51140;45.340;5.980;2022-10-26T10:49:01;98175.16;;;21.99;100.00
64713;BME280;51140;45.340;5.980;2022-10-26T10:51:29;98169.69;;;22.01;100.00
64713;BME280;51140;45.340;5.980;2022-10-26T10:53:59;98162.03;;;21.98;100.00
64713;BME280;51140;45.340;5.980;2022-10-26T10:59:32;98192.41;;;22.13;100.00
64713;BME280;51140;45.340;5.980;2022-10-26T11:06:59;98157.22;;;22.29;100.00
64713;BME280;51140;45.340;5.980;2022-10-26T11:09:29;98171.56;;;22.18;100.00
64713;BME280;51140;45.340;5.980;2022-10-26T11:12:01;98166.56;;;22.15;100.00
64713;BME280;51140;45.340;5.980;2022-10-26T11:14:38;98166.25;;;22.18;100.00
64713;BME280;51140;45.340;5.980;2022-10-26T11:17:24;98189.69;;;22.23;100.00
64713;BME280;51140;45.340;5.980;2022-10-26T11:22:29;98103.59;;;20.43;100.00
64713;BME280;51140;45.340;5.980;2022-10-26T11:25:02;98153.91;;;20.80;100.00
64713;BME280;51140;45.340;5.980;2022-10-26T11:27:42;98122.47;;;20.67;100.00
64713;BME280;51140;45.340;5.980;2022-10-26T11:30:22;98140.75;;;20.51;100.00
64713;BME280;51140;45.340;5.980;2022-10-26T11:33:21;98202.53;;;20.88;100.00
64713;BME280;51140;45.340;5.980;2022-10-26T11:35:59;98183.50;;;21.32;100.00
64713;BME280;51140;45.340;5.980;2022-10-26T11:43:55;98162.72;;;21.27;100.00
64713;BME280;51140;45.340;5.980;2022-10-26T11:46:29;98128.38;;;21.35;100.00
64713;BME280;51140;45.340;5.980;2022-10-26T11:51:37;98160.50;;;21.50;100.00
64713;BME280;51140;45.340;5.980;2022-10-26T11:54:27;98173.31;;;21.54;100.00
64713;BME280;51140;45.340;5.980;2022-10-26T11:56:54;98173.19;;;21.56;100.00
64713;BME280;51140;45.340;5.980;2022-10-26T11:59:27;98176.50;;;21.58;100.00
64713;BME280;51140;45.340;5.980;2022-10-26T12:01:57;98179.84;;;21.60;100.00
64713;BME280;51140;45.340;5.980;2022-10-26T12:04:28;98179.84;;;21.60;100.00
64713;BME280;51140;45.340;5.980;2022-10-26T12:06:55;98188.63;;;21.61;100.00
64713;BME280;51140;45.340;5.980;2022-10-26T12:09:28;98182.50;;;21.60;100.00
64713;BME280;51140;45.340;5.980;2022-10-26T12:11:58;98182.66;;;21.58;100.00
64713;BME280;51140;45.340;5.980;2022-10-26T12:14:59;98178.19;;;21.59;100.00
64713;BME280;51140;45.340;5.980;2022-10-26T12:22:32;98175.53;;;21.59;100.00
64713;BME280;51140;45.340;5.980;2022-10-26T12:25:17;98161.44;;;21.58;100.00
64713;BME280;51140;45.340;5.980;2022-10-26T12:37:59;98151.97;;;21.56;100.00
64713;BME280;51140;45.340;5.980;2022-10-26T12:40:42;98146.66;;;21.56;100.00
64713;BME280;51140;45.340;5.980;2022-10-26T12:45:40;98139.69;;;21.55;100.00
64713;BME280;51140;45.340;5.980;2022-10-26T12:48:21;98133.56;;;21.54;100.00
64713;BME280;51140;45.340;5.980;2022-10-26T12:50:49;98137.06;;;21.55;100.00
64713;BME280;51140;45.340;5.980;2022-10-26T12:53:18;98138.03;;;21.54;100.00
64713;BME280;51140;45.340;5.980;2022-10-26T13:08:44;98127.72;;;21.51;100.00
64713;BME280;51140;45.340;5.980;2022-10-26T13:11:17;98122.44;;;21.51;100.00
64713;BME280;51140;45.340;5.980;2022-10-26T13:13:50;98120.75;;;21.50;100.00
64713;BME280;51140;45.340;5.980;2022-10-26T13:16:17;98126.06;;;21.50;100.00
64713;BME280;51140;45.340;5.980;2022-10-26T13:18:44;98126.06;;;21.50;100.00
64713;BME280;51140;45.340;5.980;2022-10-26T13:21:14;98124.41;;;21.49;100.00
64713;BME280;51140;45.340;5.980;2022-10-26T13:26:18;98123.56;;;21.48;100.00
64713;BME280;51140;45.340;5.980;2022-10-26T13:28:45;98121.75;;;21.49;100.00
64713;BME280;51140;45.340;5.980;2022-10-26T13:37:11;98123.56;;;21.48;100.00
64713;BME280;51140;45.340;5.980;2022-10-26T13:39:42;98121.91;;;21.47;100.00
64713;BME280;51140;45.340;5.980;2022-10-26T13:42:17;98113.09;;;21.47;100.00
64713;BME280;51140;45.340;5.980;2022-10-26T13:44:56;98106.97;;;21.46;100.00
64713;BME280;51140;45.340;5.980;2022-10-26T13:47:29;98106.97;;;21.46;100.00
64713;BME280;51140;45.340;5.980;2022-10-26T13:50:05;98111.44;;;21.46;100.00
64713;BME280;51140;45.340;5.980;2022-10-26T13:52:38;98109.78;;;21.45;100.00
64713;BME280;51140;45.340;5.980;2022-10-26T13:55:12;98108.78;;;21.46;100.00
64713;BME280;51140;45.340;5.980;2022-10-26T13:57:44;98108.78;;;21.46;100.00
64713;BME280;51140;45.340;5.980;2022-10-26T14:00:19;98117.72;;;21.45;100.00
64713;BME280;51140;45.340;5.980;2022-10-26T14:02:45;98107.13;;;21.45;100.00
64713;BME280;51140;45.340;5.980;2022-10-26T14:05:13;98112.44;;;21.45;100.00
64713;BME280;51140;45.340;5.980;2022-10-26T14:07:43;98124.69;;;21.46;100.00
64713;BME280;51140;45.340;5.980;2022-10-26T14:10:25;98127.34;;;21.46;100.00
64713;BME280;51140;45.340;5.980;2022-10-26T14:12:52;98135.28;;;21.46;100.00
64713;BME280;51140;45.340;5.980;2022-10-26T14:15:22;98133.63;;;21.45;100.00
64713;BME280;51140;45.340;5.980;2022-10-26T14:17:50;98138.94;;;21.45;100.00
64713;BME280;51140;45.340;5.980;2022-10-26T14:20:18;98148.53;;;21.46;100.00
64713;BME280;51140;45.340;5.980;2022-10-26T14:22:44;98147.72;;;21.45;100.00
64713;BME280;51140;45.340;5.980;2022-10-26T14:25:35;98145.06;;;21.45;100.00
64713;BME280;51140;45.340;5.980;2022-10-26T14:28:01;98152.19;;;21.45;100.00
64713;BME280;51140;45.340;5.980;2022-10-26T14:30:31;98157.47;;;21.45;100.00
64713;BME280;51140;45.340;5.980;2022-10-26T14:32:57;98152.31;;;21.43;100.00
64713;BME280;51140;45.340;5.980;2022-10-26T14:35:26;98155.66;;;21.45;100.00
64713;BME280;51140;45.340;5.980;2022-10-26T14:37:59;98160.97;;;21.45;100.00
64713;BME280;51140;45.340;5.980;2022-10-26T14:40:29;98155.66;;;21.45;100.00
64713;BME280;51140;45.340;5.980;2022-10-26T14:42:58;98154.81;;;21.45;100.00
64713;BME280;51140;45.340;5.980;2022-10-26T14:45:30;98159.16;;;21.46;100.00
64713;BME280;51140;45.340;5.980;2022-10-26T14:47:58;98156.34;;;21.47;100.00
64713;BME280;51140;45.340;5.980;2022-10-26T14:50:25;98160.13;;;21.45;100.00
64713;BME280;51140;45.340;5.980;2022-10-26T14:52:58;98152.03;;;21.46;100.00
64713;BME280;51140;45.340;5.980;2022-10-26T14:55:25;98153.84;;;21.46;100.00
64713;BME280;51140;45.340;5.980;2022-10-26T14:58:04;98152.03;;;21.46;100.00
64713;BME280;51140;45.340;5.980;2022-10-26T15:00:31;98151.19;;;21.46;100.00